sensor_id;sensor_type;location;lat;lon;timestamp;P1;durP1;ratioP1;P2;durP2;ratioP2
42084;SDS011;27746;52.228;20.890;2022-11-10T00:00:54;53.17;;;29.90;;
42084;SDS011;27746;52.228;20.890;2022-11-10T00:03:21;54.35;;;29.33;;
42084;SDS011;27746;52.228;20.890;2022-11-10T00:05:48;51.60;;;29.60;;
42084;SDS011;27746;52.228;20.890;2022-11-10T00:08:15;52.97;;;29.45;;
42084;SDS011;27746;52.228;20.890;2022-11-10T00:10:42;56.50;;;28.10;;
42084;SDS011;27746;52.228;20.890;2022-11-10T00:13:27;60.60;;;29.60;;
42084;SDS011;27746;52.228;20.890;2022-11-10T00:15:57;56.55;;;28.95;;
42084;SDS011;27746;52.228;20.890;2022-11-10T00:18:42;53.60;;;29.95;;
42084;SDS011;27746;52.228;20.890;2022-11-10T00:21:10;50.88;;;28.45;;
42084;SDS011;27746;52.228;20.890;2022-11-10T00:23:37;53.63;;;28.30;;
42084;SDS011;27746;52.228;20.890;2022-11-10T00:26:09;48.85;;;28.83;;
42084;SDS011;27746;52.228;20.890;2022-11-10T00:28:39;55.75;;;30.73;;
42084;SDS011;27746;52.228;20.890;2022-11-10T00:31:06;57.65;;;30.42;;
42084;SDS011;27746;52.228;20.890;2022-11-10T00:33:33;55.88;;;28.77;;
42084;SDS011;27746;52.228;20.890;2022-11-10T00:36:00;52.13;;;27.70;;
42084;SDS011;27746;52.228;20.890;2022-11-10T00:38:27;60.50;;;30.08;;
42084;SDS011;27746;52.228;20.890;2022-11-10T00:40:54;57.17;;;27.98;;
42084;SDS011;27746;52.228;20.890;2022-11-10T00:43:22;56.85;;;29.63;;
42084;SDS011;27746;52.228;20.890;2022-11-10T00:45:50;53.40;;;27.35;;
42084;SDS011;27746;52.228;20.890;2022-11-10T00:48:17;54.60;;;29.75;;
42084;SDS011;27746;52.228;20.890;2022-11-10T00:50:44;57.95;;;29.42;;
42084;SDS011;27746;52.228;20.890;2022-11-10T00:53:10;51.95;;;29.02;;
42084;SDS011;27746;52.228;20.890;2022-11-10T00:55:37;51.92;;;29.08;;
42084;SDS011;27746;52.228;20.890;2022-11-10T00:58:05;51.55;;;27.63;;
42084;SDS011;27746;52.228;20.890;2022-11-10T01:00:32;54.90;;;27.83;;
42084;SDS011;27746;52.228;20.890;2022-11-10T01:03:00;53.25;;;29.02;;
42084;SDS011;27746;52.228;20.890;2022-11-10T01:05:27;58.03;;;29.55;;
42084;SDS011;27746;52.228;20.890;2022-11-10T01:07:55;55.45;;;28.63;;
42084;SDS011;27746;52.228;20.890;2022-11-10T01:10:23;55.80;;;28.30;;
42084;SDS011;27746;52.228;20.890;2022-11-10T01:12:50;53.30;;;28.00;;
42084;SDS011;27746;52.228;20.890;2022-11-10T01:15:17;56.22;;;30.05;;
42084;SDS011;27746;52.228;20.890;2022-11-10T01:17:44;55.55;;;30.48;;
42084;SDS011;27746;52.228;20.890;2022-11-10T01:20:12;59.45;;;29.63;;
42084;SDS011;27746;52.228;20.890;2022-11-10T01:22:39;58.72;;;30.02;;
42084;SDS011;27746;52.228;20.890;2022-11-10T01:25:06;53.08;;;27.77;;
42084;SDS011;27746;52.228;20.890;2022-11-10T01:27:34;51.58;;;28.92;;
42084;SDS011;27746;52.228;20.890;2022-11-10T01:30:01;48.55;;;27.48;;
42084;SDS011;27746;52.228;20.890;2022-11-10T01:32:28;60.75;;;29.73;;
42084;SDS011;27746;52.228;20.890;2022-11-10T01:34:54;56.72;;;30.98;;
42084;SDS011;27746;52.228;20.890;2022-11-10T01:37:23;56.17;;;31.02;;
42084;SDS011;27746;52.228;20.890;2022-11-10T01:39:50;52.03;;;28.45;;
42084;SDS011;27746;52.228;20.890;2022-11-10T01:42:21;59.20;;;30.10;;
42084;SDS011;27746;52.228;20.890;2022-11-10T01:48:04;57.97;;;30.38;;
42084;SDS011;27746;52.228;20.890;2022-11-10T01:50:32;55.70;;;28.58;;
42084;SDS011;27746;52.228;20.890;2022-11-10T01:53:04;54.83;;;27.33;;
42084;SDS011;27746;52.228;20.890;2022-11-10T01:55:36;52.40;;;29.88;;
42084;SDS011;27746;52.228;20.890;2022-11-10T01:58:06;56.78;;;31.30;;
42084;SDS011;27746;52.228;20.890;2022-11-10T02:00:33;54.72;;;31.63;;
42084;SDS011;27746;52.228;20.890;2022-11-10T02:03:01;58.38;;;28.75;;
42084;SDS011;27746;52.228;20.890;2022-11-10T02:05:32;60.67;;;29.58;;
42084;SDS011;27746;52.228;20.890;2022-11-10T02:07:59;58.45;;;30.23;;
42084;SDS011;27746;52.228;20.890;2022-11-10T02:10:30;57.08;;;29.98;;
42084;SDS011;27746;52.228;20.890;2022-11-10T02:12:57;51.67;;;28.95;;
42084;SDS011;27746;52.228;20.890;2022-11-10T02:15:24;52.53;;;28.13;;
42084;SDS011;27746;52.228;20.890;2022-11-10T02:17:51;51.78;;;29.85;;
42084;SDS011;27746;52.228;20.890;2022-11-10T02:20:18;59.03;;;31.75;;
42084;SDS011;27746;52.228;20.890;2022-11-10T02:22:47;57.35;;;29.38;;
42084;SDS011;27746;52.228;20.890;2022-11-10T02:25:16;54.30;;;29.52;;
42084;SDS011;27746;52.228;20.890;2022-11-10T02:27:45;55.28;;;29.48;;
42084;SDS011;27746;52.228;20.890;2022-11-10T02:30:13;55.85;;;30.17;;
42084;SDS011;27746;52.228;20.890;2022-11-10T02:32:41;55.25;;;29.02;;
42084;SDS011;27746;52.228;20.890;2022-11-10T02:35:08;53.60;;;26.90;;
42084;SDS011;27746;52.228;20.890;2022-11-10T02:37:35;63.95;;;30.90;;
42084;SDS011;27746;52.228;20.890;2022-11-10T02:40:03;59.85;;;30.08;;
42084;SDS011;27746;52.228;20.890;2022-11-10T02:42:31;53.92;;;30.48;;
42084;SDS011;27746;52.228;20.890;2022-11-10T02:44:58;56.95;;;31.17;;
42084;SDS011;27746;52.228;20.890;2022-11-10T02:47:24;56.03;;;29.70;;
42084;SDS011;27746;52.228;20.890;2022-11-10T02:49:51;58.85;;;30.65;;
42084;SDS011;27746;52.228;20.890;2022-11-10T02:52:18;56.20;;;29.63;;
42084;SDS011;27746;52.228;20.890;2022-11-10T02:54:45;59.80;;;29.13;;
42084;SDS011;27746;52.228;20.890;2022-11-10T02:57:13;53.40;;;29.05;;
42084;SDS011;27746;52.228;20.890;2022-11-10T02:59:40;57.13;;;31.30;;
42084;SDS011;27746;52.228;20.890;2022-11-10T03:02:06;60.40;;;31.10;;
42084;SDS011;27746;52.228;20.890;2022-11-10T03:04:33;54.55;;;28.33;;
42084;SDS011;27746;52.228;20.890;2022-11-10T03:07:00;59.28;;;29.35;;
42084;SDS011;27746;52.228;20.890;2022-11-10T03:09:27;53.00;;;28.60;;
42084;SDS011;27746;52.228;20.890;2022-11-10T03:11:54;55.10;;;29.55;;
42084;SDS011;27746;52.228;20.890;2022-11-10T03:14:22;58.00;;;30.85;;
42084;SDS011;27746;52.228;20.890;2022-11-10T03:16:48;59.08;;;30.52;;
42084;SDS011;27746;52.228;20.890;2022-11-10T03:19:17;56.42;;;29.05;;
42084;SDS011;27746;52.228;20.890;2022-11-10T03:21:44;59.95;;;29.48;;
42084;SDS011;27746;52.228;20.890;2022-11-10T03:24:11;55.10;;;30.08;;
42084;SDS011;27746;52.228;20.890;2022-11-10T03:26:37;50.10;;;29.60;;
42084;SDS011;27746;52.228;20.890;2022-11-10T03:29:04;57.65;;;30.58;;
42084;SDS011;27746;52.228;20.890;2022-11-10T03:31:32;57.03;;;30.48;;
42084;SDS011;27746;52.228;20.890;2022-11-10T03:33:59;56.00;;;27.85;;
42084;SDS011;27746;52.228;20.890;2022-11-10T03:36:26;59.42;;;30.65;;
42084;SDS011;27746;52.228;20.890;2022-11-10T03:38:52;53.22;;;28.08;;
42084;SDS011;27746;52.228;20.890;2022-11-10T03:41:19;56.33;;;29.20;;
42084;SDS011;27746;52.228;20.890;2022-11-10T03:43:46;58.45;;;28.45;;
42084;SDS011;27746;52.228;20.890;2022-11-10T03:46:13;55.53;;;30.27;;
42084;SDS011;27746;52.228;20.890;2022-11-10T03:48:41;59.20;;;30.05;;
42084;SDS011;27746;52.228;20.890;2022-11-10T03:51:08;56.85;;;29.33;;
42084;SDS011;27746;52.228;20.890;2022-11-10T03:53:34;56.65;;;30.33;;
42084;SDS011;27746;52.228;20.890;2022-11-10T03:56:01;53.60;;;29.02;;
42084;SDS011;27746;52.228;20.890;2022-11-10T03:58:29;57.70;;;29.45;;
42084;SDS011;27746;52.228;20.890;2022-11-10T04:00:56;60.60;;;29.48;;
42084;SDS011;27746;52.228;20.890;2022-11-10T04:03:24;56.67;;;29.80;;
42084;SDS011;27746;52.228;20.890;2022-11-10T04:05:52;54.50;;;30.80;;
42084;SDS011;27746;52.228;20.890;2022-11-10T04:08:37;56.47;;;28.70;;
42084;SDS011;27746;52.228;20.890;2022-11-10T04:11:23;55.85;;;29.35;;
42084;SDS011;27746;52.228;20.890;2022-11-10T04:14:08;51.88;;;29.25;;
42084;SDS011;27746;52.228;20.890;2022-11-10T04:16:57;58.20;;;29.92;;
42084;SDS011;27746;52.228;20.890;2022-11-10T04:19:24;57.67;;;29.02;;
42084;SDS011;27746;52.228;20.890;2022-11-10T04:21:52;54.53;;;29.50;;
42084;SDS011;27746;52.228;20.890;2022-11-10T04:24:19;54.80;;;30.05;;
42084;SDS011;27746;52.228;20.890;2022-11-10T04:26:46;61.92;;;29.83;;
42084;SDS011;27746;52.228;20.890;2022-11-10T04:29:13;54.85;;;28.10;;
42084;SDS011;27746;52.228;20.890;2022-11-10T04:31:42;58.38;;;30.52;;
42084;SDS011;27746;52.228;20.890;2022-11-10T04:34:09;60.55;;;31.50;;
42084;SDS011;27746;52.228;20.890;2022-11-10T04:36:38;63.80;;;29.20;;
42084;SDS011;27746;52.228;20.890;2022-11-10T04:39:07;61.65;;;31.70;;
42084;SDS011;27746;52.228;20.890;2022-11-10T04:41:35;60.45;;;30.55;;
42084;SDS011;27746;52.228;20.890;2022-11-10T04:44:01;57.42;;;30.23;;
42084;SDS011;27746;52.228;20.890;2022-11-10T04:46:29;67.03;;;31.88;;
42084;SDS011;27746;52.228;20.890;2022-11-10T04:48:57;58.97;;;31.08;;
42084;SDS011;27746;52.228;20.890;2022-11-10T04:51:26;61.58;;;30.60;;
42084;SDS011;27746;52.228;20.890;2022-11-10T04:53:54;62.45;;;30.92;;
42084;SDS011;27746;52.228;20.890;2022-11-10T04:56:22;57.70;;;29.58;;
42084;SDS011;27746;52.228;20.890;2022-11-10T04:58:50;60.70;;;29.90;;
42084;SDS011;27746;52.228;20.890;2022-11-10T05:01:19;60.45;;;30.15;;
42084;SDS011;27746;52.228;20.890;2022-11-10T05:03:47;56.88;;;30.33;;
42084;SDS011;27746;52.228;20.890;2022-11-10T05:06:15;61.00;;;31.08;;
42084;SDS011;27746;52.228;20.890;2022-11-10T05:08:42;60.33;;;31.05;;
42084;SDS011;27746;52.228;20.890;2022-11-10T05:11:09;65.78;;;30.92;;
42084;SDS011;27746;52.228;20.890;2022-11-10T05:13:38;59.47;;;29.55;;
42084;SDS011;27746;52.228;20.890;2022-11-10T05:16:06;59.05;;;30.15;;
42084;SDS011;27746;52.228;20.890;2022-11-10T05:18:33;65.30;;;30.48;;
42084;SDS011;27746;52.228;20.890;2022-11-10T05:21:00;65.60;;;32.38;;
42084;SDS011;27746;52.228;20.890;2022-11-10T05:23:27;66.05;;;29.92;;
42084;SDS011;27746;52.228;20.890;2022-11-10T05:26:03;61.70;;;32.42;;
42084;SDS011;27746;52.228;20.890;2022-11-10T05:28:30;62.45;;;31.25;;
42084;SDS011;27746;52.228;20.890;2022-11-10T05:30:58;60.15;;;30.77;;
42084;SDS011;27746;52.228;20.890;2022-11-10T05:33:25;60.25;;;31.33;;
42084;SDS011;27746;52.228;20.890;2022-11-10T05:35:52;59.28;;;30.88;;
42084;SDS011;27746;52.228;20.890;2022-11-10T05:38:18;65.43;;;31.00;;
42084;SDS011;27746;52.228;20.890;2022-11-10T05:40:45;61.20;;;30.52;;
42084;SDS011;27746;52.228;20.890;2022-11-10T05:43:14;63.20;;;30.33;;
42084;SDS011;27746;52.228;20.890;2022-11-10T05:45:41;67.10;;;30.25;;
42084;SDS011;27746;52.228;20.890;2022-11-10T05:48:09;60.90;;;31.25;;
42084;SDS011;27746;52.228;20.890;2022-11-10T05:50:36;65.22;;;32.00;;
42084;SDS011;27746;52.228;20.890;2022-11-10T05:53:03;63.45;;;30.95;;
42084;SDS011;27746;52.228;20.890;2022-11-10T05:55:30;64.07;;;31.23;;
42084;SDS011;27746;52.228;20.890;2022-11-10T05:57:57;63.25;;;32.53;;
42084;SDS011;27746;52.228;20.890;2022-11-10T06:00:24;63.60;;;31.35;;
42084;SDS011;27746;52.228;20.890;2022-11-10T06:02:55;67.53;;;33.05;;
42084;SDS011;27746;52.228;20.890;2022-11-10T06:05:24;68.43;;;32.38;;
42084;SDS011;27746;52.228;20.890;2022-11-10T06:07:51;69.38;;;33.70;;
42084;SDS011;27746;52.228;20.890;2022-11-10T06:10:18;70.15;;;34.55;;
42084;SDS011;27746;52.228;20.890;2022-11-10T06:12:45;66.35;;;32.83;;
42084;SDS011;27746;52.228;20.890;2022-11-10T06:15:11;69.88;;;32.33;;
42084;SDS011;27746;52.228;20.890;2022-11-10T06:17:39;66.35;;;32.25;;
42084;SDS011;27746;52.228;20.890;2022-11-10T06:20:12;70.97;;;34.40;;
42084;SDS011;27746;52.228;20.890;2022-11-10T06:22:42;60.53;;;31.10;;
42084;SDS011;27746;52.228;20.890;2022-11-10T06:25:09;68.30;;;31.10;;
42084;SDS011;27746;52.228;20.890;2022-11-10T06:27:36;67.63;;;30.25;;
42084;SDS011;27746;52.228;20.890;2022-11-10T06:30:03;65.97;;;32.15;;
42084;SDS011;27746;52.228;20.890;2022-11-10T06:32:32;68.10;;;31.20;;
42084;SDS011;27746;52.228;20.890;2022-11-10T06:34:59;69.88;;;31.75;;
42084;SDS011;27746;52.228;20.890;2022-11-10T06:37:26;64.68;;;33.13;;
42084;SDS011;27746;52.228;20.890;2022-11-10T06:39:54;73.53;;;36.20;;
42084;SDS011;27746;52.228;20.890;2022-11-10T06:42:21;64.85;;;30.92;;
42084;SDS011;27746;52.228;20.890;2022-11-10T06:44:48;66.07;;;33.00;;
42084;SDS011;27746;52.228;20.890;2022-11-10T06:47:14;68.18;;;31.38;;
42084;SDS011;27746;52.228;20.890;2022-11-10T06:49:41;72.97;;;31.70;;
42084;SDS011;27746;52.228;20.890;2022-11-10T06:52:08;65.80;;;32.55;;
42084;SDS011;27746;52.228;20.890;2022-11-10T06:54:39;67.18;;;31.20;;
42084;SDS011;27746;52.228;20.890;2022-11-10T06:57:14;62.20;;;32.63;;
42084;SDS011;27746;52.228;20.890;2022-11-10T06:59:41;64.80;;;31.52;;
42084;SDS011;27746;52.228;20.890;2022-11-10T07:02:08;66.88;;;31.65;;
42084;SDS011;27746;52.228;20.890;2022-11-10T07:04:39;71.28;;;34.47;;
42084;SDS011;27746;52.228;20.890;2022-11-10T07:07:06;63.67;;;32.17;;
42084;SDS011;27746;52.228;20.890;2022-11-10T07:09:33;65.45;;;32.85;;
42084;SDS011;27746;52.228;20.890;2022-11-10T07:12:00;74.22;;;33.20;;
42084;SDS011;27746;52.228;20.890;2022-11-10T07:14:28;65.30;;;31.33;;
42084;SDS011;27746;52.228;20.890;2022-11-10T07:16:54;66.20;;;31.65;;
42084;SDS011;27746;52.228;20.890;2022-11-10T07:19:21;76.80;;;32.35;;
42084;SDS011;27746;52.228;20.890;2022-11-10T07:21:48;65.95;;;31.35;;
42084;SDS011;27746;52.228;20.890;2022-11-10T07:24:15;73.63;;;32.67;;
42084;SDS011;27746;52.228;20.890;2022-11-10T07:26:41;73.55;;;32.05;;
42084;SDS011;27746;52.228;20.890;2022-11-10T07:29:08;69.05;;;31.33;;
42084;SDS011;27746;52.228;20.890;2022-11-10T07:31:36;64.28;;;30.92;;
42084;SDS011;27746;52.228;20.890;2022-11-10T07:34:03;64.93;;;30.27;;
42084;SDS011;27746;52.228;20.890;2022-11-10T07:36:30;68.30;;;32.70;;
42084;SDS011;27746;52.228;20.890;2022-11-10T07:38:56;73.00;;;33.03;;
42084;SDS011;27746;52.228;20.890;2022-11-10T07:41:24;69.10;;;31.08;;
42084;SDS011;27746;52.228;20.890;2022-11-10T07:43:50;69.30;;;32.03;;
42084;SDS011;27746;52.228;20.890;2022-11-10T07:46:17;67.50;;;29.60;;
42084;SDS011;27746;52.228;20.890;2022-11-10T07:48:45;64.75;;;30.73;;
42084;SDS011;27746;52.228;20.890;2022-11-10T07:51:12;65.20;;;30.77;;
42084;SDS011;27746;52.228;20.890;2022-11-10T07:53:39;72.47;;;32.45;;
42084;SDS011;27746;52.228;20.890;2022-11-10T07:56:06;65.85;;;31.23;;
42084;SDS011;27746;52.228;20.890;2022-11-10T07:58:33;60.30;;;29.08;;
42084;SDS011;27746;52.228;20.890;2022-11-10T08:01:00;59.22;;;29.13;;
42084;SDS011;27746;52.228;20.890;2022-11-10T08:03:27;68.38;;;32.88;;
42084;SDS011;27746;52.228;20.890;2022-11-10T08:05:55;61.90;;;30.80;;
42084;SDS011;27746;52.228;20.890;2022-11-10T08:08:22;63.50;;;30.05;;
42084;SDS011;27746;52.228;20.890;2022-11-10T08:10:49;61.70;;;28.95;;
42084;SDS011;27746;52.228;20.890;2022-11-10T08:13:16;65.07;;;30.48;;
42084;SDS011;27746;52.228;20.890;2022-11-10T08:15:42;70.07;;;32.25;;
42084;SDS011;27746;52.228;20.890;2022-11-10T08:18:13;58.28;;;27.42;;
42084;SDS011;27746;52.228;20.890;2022-11-10T08:20:42;64.93;;;28.30;;
42084;SDS011;27746;52.228;20.890;2022-11-10T08:23:10;67.38;;;29.95;;
42084;SDS011;27746;52.228;20.890;2022-11-10T08:25:38;59.00;;;27.13;;
42084;SDS011;27746;52.228;20.890;2022-11-10T08:28:06;59.72;;;28.42;;
42084;SDS011;27746;52.228;20.890;2022-11-10T08:30:34;59.72;;;27.80;;
42084;SDS011;27746;52.228;20.890;2022-11-10T08:33:02;56.42;;;27.65;;
42084;SDS011;27746;52.228;20.890;2022-11-10T08:35:30;57.13;;;28.50;;
42084;SDS011;27746;52.228;20.890;2022-11-10T08:38:04;61.33;;;27.30;;
42084;SDS011;27746;52.228;20.890;2022-11-10T08:40:34;60.22;;;28.10;;
42084;SDS011;27746;52.228;20.890;2022-11-10T08:43:01;57.75;;;27.02;;
42084;SDS011;27746;52.228;20.890;2022-11-10T08:45:31;56.53;;;26.88;;
42084;SDS011;27746;52.228;20.890;2022-11-10T08:47:59;313.88;;;53.85;;
42084;SDS011;27746;52.228;20.890;2022-11-10T08:50:27;99.85;;;30.25;;
42084;SDS011;27746;52.228;20.890;2022-11-10T08:52:55;59.10;;;26.92;;
42084;SDS011;27746;52.228;20.890;2022-11-10T08:55:25;68.35;;;27.75;;
42084;SDS011;27746;52.228;20.890;2022-11-10T08:57:56;57.97;;;25.70;;
42084;SDS011;27746;52.228;20.890;2022-11-10T09:00:23;58.17;;;27.33;;
42084;SDS011;27746;52.228;20.890;2022-11-10T09:02:50;51.60;;;25.08;;
42084;SDS011;27746;52.228;20.890;2022-11-10T09:05:17;56.78;;;26.73;;
42084;SDS011;27746;52.228;20.890;2022-11-10T09:07:44;53.00;;;24.98;;
42084;SDS011;27746;52.228;20.890;2022-11-10T09:10:12;56.47;;;25.70;;
42084;SDS011;27746;52.228;20.890;2022-11-10T09:12:41;50.80;;;25.15;;
42084;SDS011;27746;52.228;20.890;2022-11-10T09:15:09;50.63;;;25.23;;
42084;SDS011;27746;52.228;20.890;2022-11-10T09:17:36;44.65;;;25.23;;
42084;SDS011;27746;52.228;20.890;2022-11-10T09:20:04;55.03;;;25.17;;
42084;SDS011;27746;52.228;20.890;2022-11-10T09:22:33;47.85;;;23.67;;
42084;SDS011;27746;52.228;20.890;2022-11-10T09:25:00;52.17;;;24.95;;
42084;SDS011;27746;52.228;20.890;2022-11-10T09:27:27;65.57;;;26.60;;
42084;SDS011;27746;52.228;20.890;2022-11-10T09:29:54;55.50;;;25.25;;
42084;SDS011;27746;52.228;20.890;2022-11-10T09:32:22;49.92;;;25.08;;
42084;SDS011;27746;52.228;20.890;2022-11-10T09:34:49;51.00;;;24.52;;
42084;SDS011;27746;52.228;20.890;2022-11-10T09:37:16;49.67;;;24.38;;
42084;SDS011;27746;52.228;20.890;2022-11-10T09:39:42;51.10;;;24.08;;
42084;SDS011;27746;52.228;20.890;2022-11-10T09:42:18;47.53;;;25.50;;
42084;SDS011;27746;52.228;20.890;2022-11-10T09:44:53;48.85;;;23.00;;
42084;SDS011;27746;52.228;20.890;2022-11-10T09:47:26;44.40;;;23.15;;
42084;SDS011;27746;52.228;20.890;2022-11-10T09:50:00;43.72;;;23.77;;
42084;SDS011;27746;52.228;20.890;2022-11-10T09:52:28;50.95;;;22.60;;
42084;SDS011;27746;52.228;20.890;2022-11-10T09:54:58;41.05;;;22.00;;
42084;SDS011;27746;52.228;20.890;2022-11-10T09:57:30;51.85;;;23.45;;
42084;SDS011;27746;52.228;20.890;2022-11-10T09:59:56;43.97;;;22.45;;
42084;SDS011;27746;52.228;20.890;2022-11-10T10:02:26;43.75;;;23.52;;
42084;SDS011;27746;52.228;20.890;2022-11-10T10:05:14;46.13;;;25.58;;
42084;SDS011;27746;52.228;20.890;2022-11-10T10:08:01;41.97;;;22.70;;
42084;SDS011;27746;52.228;20.890;2022-11-10T10:10:31;48.28;;;23.90;;
42084;SDS011;27746;52.228;20.890;2022-11-10T10:13:09;43.33;;;23.10;;
42084;SDS011;27746;52.228;20.890;2022-11-10T10:15:51;36.97;;;21.80;;
42084;SDS011;27746;52.228;20.890;2022-11-10T10:18:30;42.00;;;23.30;;
42084;SDS011;27746;52.228;20.890;2022-11-10T10:21:10;41.85;;;22.42;;
42084;SDS011;27746;52.228;20.890;2022-11-10T10:26:15;38.08;;;20.52;;
42084;SDS011;27746;52.228;20.890;2022-11-10T10:28:46;41.20;;;22.40;;
42084;SDS011;27746;52.228;20.890;2022-11-10T10:31:17;36.63;;;20.23;;
42084;SDS011;27746;52.228;20.890;2022-11-10T10:33:46;35.22;;;20.33;;
42084;SDS011;27746;52.228;20.890;2022-11-10T10:36:14;37.60;;;21.23;;
42084;SDS011;27746;52.228;20.890;2022-11-10T10:38:44;40.75;;;21.52;;
42084;SDS011;27746;52.228;20.890;2022-11-10T10:41:12;36.63;;;18.88;;
42084;SDS011;27746;52.228;20.890;2022-11-10T10:43:42;37.58;;;20.05;;
42084;SDS011;27746;52.228;20.890;2022-11-10T10:46:13;39.05;;;20.40;;
42084;SDS011;27746;52.228;20.890;2022-11-10T10:48:41;33.53;;;18.10;;
42084;SDS011;27746;52.228;20.890;2022-11-10T10:51:09;35.65;;;19.70;;
42084;SDS011;27746;52.228;20.890;2022-11-10T10:53:44;37.65;;;19.25;;
42084;SDS011;27746;52.228;20.890;2022-11-10T10:56:14;32.10;;;19.40;;
42084;SDS011;27746;52.228;20.890;2022-11-10T10:58:48;28.25;;;18.40;;
42084;SDS011;27746;52.228;20.890;2022-11-10T11:01:20;36.67;;;19.15;;
42084;SDS011;27746;52.228;20.890;2022-11-10T11:03:54;32.38;;;19.20;;
42084;SDS011;27746;52.228;20.890;2022-11-10T11:06:23;35.53;;;19.75;;
42084;SDS011;27746;52.228;20.890;2022-11-10T11:08:52;34.70;;;19.17;;
42084;SDS011;27746;52.228;20.890;2022-11-10T11:11:22;31.45;;;18.10;;
42084;SDS011;27746;52.228;20.890;2022-11-10T11:13:50;38.28;;;22.70;;
42084;SDS011;27746;52.228;20.890;2022-11-10T11:16:17;62.40;;;35.97;;
42084;SDS011;27746;52.228;20.890;2022-11-10T11:18:44;36.08;;;21.77;;
42084;SDS011;27746;52.228;20.890;2022-11-10T11:21:15;30.25;;;17.40;;
42084;SDS011;27746;52.228;20.890;2022-11-10T11:23:59;30.23;;;18.10;;
42084;SDS011;27746;52.228;20.890;2022-11-10T11:26:39;30.20;;;15.80;;
42084;SDS011;27746;52.228;20.890;2022-11-10T11:29:20;27.42;;;16.35;;
42084;SDS011;27746;52.228;20.890;2022-11-10T11:31:52;25.80;;;15.30;;
42084;SDS011;27746;52.228;20.890;2022-11-10T11:34:23;27.30;;;16.55;;
42084;SDS011;27746;52.228;20.890;2022-11-10T11:36:58;28.65;;;16.35;;
42084;SDS011;27746;52.228;20.890;2022-11-10T11:39:37;28.35;;;16.83;;
42084;SDS011;27746;52.228;20.890;2022-11-10T11:42:14;29.60;;;16.38;;
42084;SDS011;27746;52.228;20.890;2022-11-10T11:44:50;32.20;;;15.88;;
42084;SDS011;27746;52.228;20.890;2022-11-10T11:47:33;29.27;;;17.15;;
42084;SDS011;27746;52.228;20.890;2022-11-10T11:50:15;27.73;;;15.27;;
42084;SDS011;27746;52.228;20.890;2022-11-10T11:52:53;24.08;;;14.98;;
42084;SDS011;27746;52.228;20.890;2022-11-10T11:55:25;30.42;;;16.30;;
42084;SDS011;27746;52.228;20.890;2022-11-10T11:58:05;26.48;;;15.75;;
42084;SDS011;27746;52.228;20.890;2022-11-10T12:00:37;25.30;;;14.43;;
42084;SDS011;27746;52.228;20.890;2022-11-10T12:03:10;21.85;;;13.50;;
42084;SDS011;27746;52.228;20.890;2022-11-10T12:05:42;23.95;;;14.02;;
42084;SDS011;27746;52.228;20.890;2022-11-10T12:08:14;23.80;;;14.30;;
42084;SDS011;27746;52.228;20.890;2022-11-10T12:10:47;25.17;;;14.48;;
42084;SDS011;27746;52.228;20.890;2022-11-10T12:13:20;24.77;;;14.25;;
42084;SDS011;27746;52.228;20.890;2022-11-10T12:15:51;21.90;;;14.20;;
42084;SDS011;27746;52.228;20.890;2022-11-10T12:18:24;25.48;;;14.98;;
42084;SDS011;27746;52.228;20.890;2022-11-10T12:20:58;24.77;;;14.30;;
42084;SDS011;27746;52.228;20.890;2022-11-10T12:23:29;23.70;;;14.38;;
42084;SDS011;27746;52.228;20.890;2022-11-10T12:26:02;23.90;;;12.82;;
42084;SDS011;27746;52.228;20.890;2022-11-10T12:28:33;21.25;;;13.82;;
42084;SDS011;27746;52.228;20.890;2022-11-10T12:31:03;22.40;;;12.77;;
42084;SDS011;27746;52.228;20.890;2022-11-10T12:33:36;23.73;;;12.38;;
42084;SDS011;27746;52.228;20.890;2022-11-10T12:36:06;24.75;;;14.40;;
42084;SDS011;27746;52.228;20.890;2022-11-10T12:38:41;25.38;;;15.10;;
42084;SDS011;27746;52.228;20.890;2022-11-10T12:41:15;25.80;;;13.63;;
42084;SDS011;27746;52.228;20.890;2022-11-10T12:43:55;26.33;;;14.45;;
42084;SDS011;27746;52.228;20.890;2022-11-10T12:46:23;23.17;;;12.93;;
42084;SDS011;27746;52.228;20.890;2022-11-10T12:48:53;22.88;;;13.07;;
42084;SDS011;27746;52.228;20.890;2022-11-10T12:51:23;20.52;;;11.27;;
42084;SDS011;27746;52.228;20.890;2022-11-10T12:53:52;29.23;;;14.45;;
42084;SDS011;27746;52.228;20.890;2022-11-10T12:56:21;36.13;;;20.00;;
42084;SDS011;27746;52.228;20.890;2022-11-10T12:58:56;21.17;;;15.25;;
42084;SDS011;27746;52.228;20.890;2022-11-10T13:01:41;22.70;;;12.77;;
42084;SDS011;27746;52.228;20.890;2022-11-10T13:04:12;18.70;;;12.68;;
42084;SDS011;27746;52.228;20.890;2022-11-10T13:06:44;22.02;;;12.63;;
42084;SDS011;27746;52.228;20.890;2022-11-10T13:12:03;23.33;;;13.15;;
42084;SDS011;27746;52.228;20.890;2022-11-10T13:14:39;20.33;;;11.32;;
42084;SDS011;27746;52.228;20.890;2022-11-10T13:17:06;20.08;;;13.05;;
42084;SDS011;27746;52.228;20.890;2022-11-10T13:19:47;20.73;;;13.60;;
42084;SDS011;27746;52.228;20.890;2022-11-10T13:22:31;23.50;;;12.82;;
42084;SDS011;27746;52.228;20.890;2022-11-10T13:27:56;22.60;;;13.23;;
42084;SDS011;27746;52.228;20.890;2022-11-10T13:30:36;18.55;;;12.20;;
42084;SDS011;27746;52.228;20.890;2022-11-10T13:35:50;22.25;;;11.80;;
42084;SDS011;27746;52.228;20.890;2022-11-10T13:38:18;21.17;;;12.63;;
42084;SDS011;27746;52.228;20.890;2022-11-10T13:41:11;18.05;;;11.38;;
42084;SDS011;27746;52.228;20.890;2022-11-10T13:43:46;23.02;;;13.57;;
42084;SDS011;27746;52.228;20.890;2022-11-10T13:46:14;18.25;;;11.85;;
42084;SDS011;27746;52.228;20.890;2022-11-10T13:51:31;19.75;;;12.95;;
42084;SDS011;27746;52.228;20.890;2022-11-10T13:54:05;19.17;;;12.32;;
42084;SDS011;27746;52.228;20.890;2022-11-10T13:56:46;24.20;;;13.35;;
42084;SDS011;27746;52.228;20.890;2022-11-10T13:59:24;23.15;;;13.75;;
42084;SDS011;27746;52.228;20.890;2022-11-10T14:01:52;21.90;;;12.80;;
42084;SDS011;27746;52.228;20.890;2022-11-10T14:04:35;22.20;;;11.93;;
42084;SDS011;27746;52.228;20.890;2022-11-10T14:07:10;20.45;;;13.05;;
42084;SDS011;27746;52.228;20.890;2022-11-10T14:09:39;23.58;;;13.77;;
42084;SDS011;27746;52.228;20.890;2022-11-10T14:12:12;23.02;;;14.43;;
42084;SDS011;27746;52.228;20.890;2022-11-10T14:14:48;21.95;;;13.48;;
42084;SDS011;27746;52.228;20.890;2022-11-10T14:17:20;24.75;;;14.57;;
42084;SDS011;27746;52.228;20.890;2022-11-10T14:19:49;23.58;;;12.77;;
42084;SDS011;27746;52.228;20.890;2022-11-10T14:22:19;23.10;;;14.13;;
42084;SDS011;27746;52.228;20.890;2022-11-10T14:24:51;24.48;;;13.23;;
42084;SDS011;27746;52.228;20.890;2022-11-10T14:27:24;25.63;;;14.50;;
42084;SDS011;27746;52.228;20.890;2022-11-10T14:30:04;24.27;;;12.85;;
42084;SDS011;27746;52.228;20.890;2022-11-10T14:32:57;24.52;;;13.13;;
42084;SDS011;27746;52.228;20.890;2022-11-10T14:35:27;21.38;;;13.05;;
42084;SDS011;27746;52.228;20.890;2022-11-10T14:37:56;26.75;;;14.68;;
42084;SDS011;27746;52.228;20.890;2022-11-10T14:40:24;23.05;;;15.18;;